createdAt,value
2018-03-02T00:01:01.273Z,100169.69
2018-03-02T00:03:29.722Z,100163.39
2018-03-02T00:05:58.154Z,100166.47
2018-03-02T00:08:27.293Z,100160.77
2018-03-02T00:10:55.786Z,100160.71
2018-03-02T00:13:24.192Z,100150.97
2018-03-02T00:15:53.457Z,100158.31
2018-03-02T00:18:21.854Z,100154.12
2018-03-02T00:20:50.246Z,100156.17
2018-03-02T00:23:18.624Z,100153.59
2018-03-02T00:25:47.024Z,100151.27
2018-03-02T00:28:16.248Z,100144.16
2018-03-02T00:30:44.669Z,100137.09
2018-03-02T00:33:13.069Z,100112.03
2018-03-02T00:35:42.238Z,100135.42
2018-03-02T00:38:10.642Z,100132.22
2018-03-02T00:40:39.042Z,100128.98
2018-03-02T00:43:08.222Z,100122.16
2018-03-02T00:45:36.589Z,100124.41
2018-03-02T00:48:05.021Z,100115.70
2018-03-02T00:50:33.417Z,100115.83
2018-03-02T00:53:01.895Z,100105.66
2018-03-02T00:55:30.284Z,100113.19
2018-03-02T00:57:58.663Z,100108.33
2018-03-02T01:00:27.056Z,100106.00
2018-03-02T01:02:55.479Z,100103.21
2018-03-02T01:05:23.895Z,100105.17
2018-03-02T01:07:52.289Z,100097.94
2018-03-02T01:10:20.685Z,100100.22
2018-03-02T01:12:49.149Z,100099.23
2018-03-02T01:15:17.537Z,100094.40
2018-03-02T01:17:46.754Z,100093.70
2018-03-02T01:20:15.139Z,100084.70
2018-03-02T01:22:44.373Z,100087.14
2018-03-02T01:25:12.792Z,100084.50
2018-03-02T01:27:41.982Z,100077.52
2018-03-02T01:30:10.395Z,100077.39
2018-03-02T01:32:39.552Z,100069.88
2018-03-02T01:35:07.964Z,100067.84
2018-03-02T01:37:37.116Z,100070.17
2018-03-02T01:40:05.549Z,100073.05
2018-03-02T01:42:34.704Z,100062.11
2018-03-02T01:45:03.156Z,100070.34
2018-03-02T01:47:31.570Z,100058.44
2018-03-02T01:49:59.982Z,100052.74
2018-03-02T01:52:29.184Z,100055.22
2018-03-02T01:54:57.586Z,100044.78
2018-03-02T01:57:26.053Z,100045.10
2018-03-02T01:59:54.463Z,100043.35
2018-03-02T02:02:22.938Z,100037.60
2018-03-02T02:04:51.345Z,100032.58
2018-03-02T02:07:19.748Z,100027.23
2018-03-02T02:09:48.894Z,100031.62
2018-03-02T02:12:17.303Z,100024.20
2018-03-02T02:14:45.682Z,100020.84
2018-03-02T02:17:14.096Z,100014.94
2018-03-02T02:19:43.294Z,100012.28
2018-03-02T02:22:12.517Z,100011.39
2018-03-02T02:24:40.999Z,100010.30
2018-03-02T02:27:09.425Z,100019.13
2018-03-02T02:29:37.813Z,100011.74
2018-03-02T02:32:06.192Z,100002.73
2018-03-02T02:34:35.378Z,100007.62
2018-03-02T02:37:03.773Z,100008.20
2018-03-02T02:39:32.941Z,99994.33
2018-03-02T02:42:01.325Z,99996.28
2018-03-02T02:44:29.722Z,99996.79
2018-03-02T02:46:58.158Z,99997.34
2018-03-02T02:49:26.736Z,99994.65
2018-03-02T02:51:55.227Z,100001.62
2018-03-02T02:54:23.665Z,100003.98
2018-03-02T02:56:52.077Z,99994.17
2018-03-02T02:59:20.455Z,99997.44
2018-03-02T03:01:48.842Z,100002.91
2018-03-02T03:04:17.368Z,99999.55
2018-03-02T03:06:46.516Z,100001.69
2018-03-02T03:09:14.996Z,99997.82
2018-03-02T03:11:43.417Z,99997.09
2018-03-02T03:14:11.798Z,99990.12
2018-03-02T03:16:40.947Z,99991.08
2018-03-02T03:19:09.399Z,99989.83
2018-03-02T03:21:37.793Z,99987.15
2018-03-02T03:24:06.208Z,99987.12
2018-03-02T03:26:35.371Z,99992.48
2018-03-02T03:29:03.778Z,99982.90
2018-03-02T03:31:32.212Z,99982.42
2018-03-02T03:34:00.617Z,99982.45
2018-03-02T03:36:29.004Z,99977.46
2018-03-02T03:38:57.480Z,99979.22
2018-03-02T03:41:25.949Z,99978.52
2018-03-02T03:43:54.338Z,99975.42
2018-03-02T03:46:22.793Z,99970.05
2018-03-02T03:48:51.201Z,99966.70
2018-03-02T03:51:19.640Z,99957.94
2018-03-02T03:53:48.784Z,99962.98
2018-03-02T03:56:17.226Z,99959.41
2018-03-02T03:58:45.606Z,99961.39
2018-03-02T04:01:14.014Z,99956.85
2018-03-02T04:03:42.426Z,99954.14
2018-03-02T04:06:10.803Z,99947.42
2018-03-02T04:08:39.194Z,99944.14
2018-03-02T04:11:07.691Z,99941.94
2018-03-02T04:13:36.873Z,99939.92
2018-03-02T04:16:06.026Z,99933.37
2018-03-02T04:18:34.405Z,99933.15
2018-03-02T04:21:02.826Z,99937.55
2018-03-02T04:23:31.998Z,99939.28
2018-03-02T04:26:00.406Z,99936.19
2018-03-02T04:28:29.653Z,99934.77
2018-03-02T04:30:58.121Z,99933.91
2018-03-02T04:33:26.493Z,99928.77
2018-03-02T04:35:54.889Z,99926.56
2018-03-02T04:38:23.282Z,99924.23
2018-03-02T04:40:51.685Z,99927.42
2018-03-02T04:43:20.118Z,99926.12
2018-03-02T04:45:48.531Z,99918.80
2018-03-02T04:48:16.981Z,99912.00
2018-03-02T04:50:45.361Z,99912.06
2018-03-02T04:53:13.778Z,99912.28
2018-03-02T04:55:42.173Z,99914.71
2018-03-02T04:58:11.377Z,99907.17
2018-03-02T05:00:40.529Z,99905.52
2018-03-02T05:03:08.958Z,99910.27
2018-03-02T05:05:38.125Z,99905.89
2018-03-02T05:08:06.547Z,99904.33
2018-03-02T05:10:34.926Z,99902.32
2018-03-02T05:13:03.317Z,99896.54
2018-03-02T05:15:31.729Z,99898.20
2018-03-02T05:18:00.150Z,99899.79
2018-03-02T05:20:29.318Z,99895.48
2018-03-02T05:22:57.709Z,99895.80
2018-03-02T05:25:26.155Z,99902.09
2018-03-02T05:27:54.628Z,99889.41
2018-03-02T05:30:23.045Z,99886.73
2018-03-02T05:32:51.450Z,99892.06
2018-03-02T05:35:20.602Z,99888.20
2018-03-02T05:37:49.093Z,99890.23
2018-03-02T05:40:17.509Z,99881.98
2018-03-02T05:42:46.654Z,99880.25
2018-03-02T05:45:15.055Z,99878.87
2018-03-02T05:47:43.462Z,99875.36
2018-03-02T05:50:12.661Z,99877.57
2018-03-02T05:52:41.829Z,99875.34
2018-03-02T05:55:10.207Z,99873.87
2018-03-02T05:57:38.614Z,99880.70
2018-03-02T06:00:07.821Z,99866.39
2018-03-02T06:02:36.222Z,99867.59
2018-03-02T06:05:04.623Z,99858.69
2018-03-02T06:07:33.041Z,99852.12
2018-03-02T06:10:02.223Z,99855.08
2018-03-02T06:12:31.368Z,99853.00
2018-03-02T06:14:59.746Z,99852.44
2018-03-02T06:17:28.237Z,99850.23
2018-03-02T06:19:56.610Z,99849.22
2018-03-02T06:22:24.987Z,99857.58
2018-03-02T06:24:53.390Z,99863.27
2018-03-02T06:27:21.834Z,99860.39
2018-03-02T06:29:50.250Z,99853.81
2018-03-02T06:32:18.629Z,99858.95
2018-03-02T06:34:47.013Z,99855.50
2018-03-02T06:37:15.445Z,99853.14
2018-03-02T06:39:43.834Z,99856.01
2018-03-02T06:42:12.215Z,99847.90
2018-03-02T06:44:40.630Z,99841.86
2018-03-02T06:47:09.024Z,99837.77
2018-03-02T06:49:37.397Z,99842.48
2018-03-02T06:52:05.802Z,99841.38
2018-03-02T06:54:34.951Z,99838.20
2018-03-02T06:57:03.349Z,99841.06
2018-03-02T06:59:31.758Z,99846.83
2018-03-02T07:02:00.906Z,99843.06
2018-03-02T07:04:29.306Z,99841.31
2018-03-02T07:06:57.738Z,99836.06
2018-03-02T07:09:26.160Z,99840.25
2018-03-02T07:11:54.545Z,99835.77
2018-03-02T07:14:22.997Z,99827.72
2018-03-02T07:16:51.409Z,99826.45
2018-03-02T07:19:19.827Z,99831.56
2018-03-02T07:21:48.237Z,99826.16
2018-03-02T07:24:16.620Z,99829.84
2018-03-02T07:26:45.010Z,99826.49
2018-03-02T07:29:13.386Z,99827.46
2018-03-02T07:31:41.814Z,99826.84
2018-03-02T07:34:10.206Z,99826.25
2018-03-02T07:36:38.589Z,99827.87
2018-03-02T07:39:06.990Z,99816.58
2018-03-02T07:41:35.401Z,99805.26
2018-03-02T07:44:04.645Z,99807.62
2018-03-02T07:46:33.039Z,99800.48
2018-03-02T07:49:01.438Z,99797.94
2018-03-02T07:51:29.815Z,99796.10
2018-03-02T07:53:58.185Z,99798.16
2018-03-02T07:56:26.570Z,99798.06
2018-03-02T07:58:54.970Z,99797.89
2018-03-02T08:01:23.366Z,99791.16
2018-03-02T08:03:52.494Z,99791.31
2018-03-02T08:06:20.960Z,99769.97
2018-03-02T08:08:49.365Z,99772.95
2018-03-02T08:11:17.740Z,99773.00
2018-03-02T08:13:46.121Z,99768.09
2018-03-02T08:16:14.645Z,99771.70
2018-03-02T08:18:43.062Z,99769.48
2018-03-02T08:21:11.429Z,99762.99
2018-03-02T08:23:39.813Z,99759.23
2018-03-02T08:26:08.252Z,99762.36
2018-03-02T08:28:36.608Z,99743.16
2018-03-02T08:31:04.990Z,99745.92
2018-03-02T08:33:33.400Z,99745.74
2018-03-02T08:36:02.549Z,99734.89
2018-03-02T08:38:30.925Z,99740.30
2018-03-02T08:40:59.325Z,99734.00
2018-03-02T08:43:27.709Z,99721.31
2018-03-02T08:45:56.083Z,99722.37
2018-03-02T08:48:24.481Z,99730.25
2018-03-02T08:50:53.623Z,99724.77
2018-03-02T08:53:22.097Z,99717.56
2018-03-02T08:55:50.469Z,99717.08
2018-03-02T08:58:18.841Z,99726.52
2018-03-02T09:00:47.253Z,99712.68
2018-03-02T09:03:15.672Z,99702.34
2018-03-02T09:05:44.066Z,99705.02
2018-03-02T09:08:13.205Z,99705.96
2018-03-02T09:13:39.785Z,99701.76
2018-03-02T09:16:08.224Z,99691.30
2018-03-02T09:18:36.597Z,99688.89
2018-03-02T09:21:04.970Z,99687.52
2018-03-02T09:23:33.384Z,99680.21
2018-03-02T09:26:01.837Z,99682.98
2018-03-02T09:28:30.210Z,99686.39
2018-03-02T09:30:58.597Z,99679.84
2018-03-02T09:33:26.970Z,99674.72
2018-03-02T09:35:55.363Z,99675.39
2018-03-02T09:38:23.782Z,99680.88
2018-03-02T09:40:52.205Z,99669.66
2018-03-02T09:43:20.623Z,99665.31
2018-03-02T09:45:49.005Z,99654.09
2018-03-02T09:48:17.420Z,99660.34
2018-03-02T09:50:45.838Z,99648.11
2018-03-02T09:53:14.203Z,99650.77
2018-03-02T09:55:42.581Z,99640.27
2018-03-02T09:58:10.945Z,99635.02
2018-03-02T10:00:39.341Z,99638.51
2018-03-02T10:03:07.713Z,99626.94
2018-03-02T10:05:36.194Z,99627.83
2018-03-02T10:08:04.594Z,99624.39
2018-03-02T10:10:32.964Z,99615.70
2018-03-02T10:13:01.350Z,99613.02
2018-03-02T10:15:29.710Z,99594.08
2018-03-02T10:17:58.162Z,99590.88
2018-03-02T10:20:27.407Z,99594.88
2018-03-02T10:22:55.773Z,99602.63
2018-03-02T10:25:24.245Z,99594.94
2018-03-02T10:27:52.612Z,99591.98
2018-03-02T10:30:21.041Z,99584.10
2018-03-02T10:32:49.429Z,99583.55
2018-03-02T10:35:17.817Z,99578.44
2018-03-02T10:37:47.720Z,99570.62
2018-03-02T10:40:16.109Z,99568.60
2018-03-02T10:42:44.509Z,99567.47
2018-03-02T10:45:13.647Z,99558.09
2018-03-02T10:47:42.086Z,99567.16
2018-03-02T10:50:11.263Z,99561.56
2018-03-02T10:52:39.684Z,99557.82
2018-03-02T10:55:08.079Z,99552.70
2018-03-02T10:57:36.528Z,99559.52
2018-03-02T11:00:04.917Z,99559.22
2018-03-02T11:02:33.305Z,99554.05
2018-03-02T11:05:07.000Z,99540.00
2018-03-02T11:07:35.411Z,99541.37
2018-03-02T11:10:03.906Z,99542.63
2018-03-02T11:12:32.268Z,99546.23
2018-03-02T11:15:00.666Z,99536.15
2018-03-02T11:17:29.074Z,99545.30
2018-03-02T11:19:58.215Z,99533.89
2018-03-02T11:22:26.642Z,99534.13
2018-03-02T11:24:55.038Z,99523.22
2018-03-02T11:27:24.170Z,99523.86
2018-03-02T11:29:52.569Z,99519.70
2018-03-02T11:32:21.024Z,99512.56
2018-03-02T11:34:49.493Z,99517.88
2018-03-02T11:37:17.861Z,99515.64
2018-03-02T11:39:46.430Z,99509.80
2018-03-02T11:42:15.587Z,99509.19
2018-03-02T11:44:43.954Z,99511.85
2018-03-02T11:47:12.422Z,99507.84
2018-03-02T11:49:40.847Z,99506.59
2018-03-02T11:52:09.224Z,99505.06
2018-03-02T11:54:37.599Z,99499.16
2018-03-02T11:57:05.996Z,99487.18
2018-03-02T11:59:35.167Z,99499.18
2018-03-02T12:02:03.550Z,99482.69
2018-03-02T12:04:31.976Z,99482.58
2018-03-02T12:07:00.451Z,99480.75
2018-03-02T12:09:28.844Z,99477.00
2018-03-02T12:11:57.379Z,99477.66
2018-03-02T12:14:25.761Z,99469.27
2018-03-02T12:16:54.976Z,99475.69
2018-03-02T12:19:23.679Z,99467.95
2018-03-02T12:21:52.058Z,99467.56
2018-03-02T12:24:20.451Z,99466.38
2018-03-02T12:26:48.841Z,99464.37
2018-03-02T12:29:17.491Z,99469.49
2018-03-02T12:31:46.073Z,99458.06
2018-03-02T12:34:14.478Z,99460.44
2018-03-02T12:36:42.945Z,99451.06
2018-03-02T12:39:12.055Z,99454.34
2018-03-02T12:41:40.435Z,99444.06
2018-03-02T12:44:08.837Z,99445.24
2018-03-02T12:46:37.292Z,99444.12
2018-03-02T12:49:05.714Z,99439.17
2018-03-02T12:51:34.135Z,99435.91
2018-03-02T12:54:02.526Z,99439.98
2018-03-02T12:56:30.968Z,99444.11
2018-03-02T12:59:00.333Z,99444.29
2018-03-02T13:01:28.746Z,99435.84
2018-03-02T13:03:57.882Z,99430.63
2018-03-02T13:06:26.275Z,99424.98
2018-03-02T13:08:54.645Z,99432.85
2018-03-02T13:11:23.046Z,99422.44
2018-03-02T13:13:51.422Z,99428.66
2018-03-02T13:16:19.826Z,99410.62
2018-03-02T13:18:49.050Z,99416.65
2018-03-02T13:21:17.424Z,99412.06
2018-03-02T13:23:46.571Z,99420.41
2018-03-02T13:26:32.753Z,99414.05
2018-03-02T13:29:01.144Z,99417.44
2018-03-02T13:31:29.585Z,99419.27
2018-03-02T13:34:15.572Z,99410.27
2018-03-02T13:36:43.969Z,99405.36
2018-03-02T13:39:12.336Z,99402.12
2018-03-02T13:41:58.822Z,99403.77
2018-03-02T13:44:28.041Z,99404.15
2018-03-02T13:46:56.442Z,99401.08
2018-03-02T13:49:42.840Z,99398.27
2018-03-02T13:52:11.241Z,99398.77
2018-03-02T13:54:39.650Z,99402.04
2018-03-02T14:00:17.573Z,99400.56
2018-03-02T14:03:03.759Z,99401.52
2018-03-02T14:05:32.902Z,99402.56
2018-03-02T14:08:01.310Z,99402.03
2018-03-02T14:10:29.713Z,99396.46
2018-03-02T14:12:58.073Z,99405.22
2018-03-02T14:15:26.486Z,99391.55
2018-03-02T14:17:55.639Z,99394.50
2018-03-02T14:20:24.025Z,99393.51
2018-03-02T14:22:52.447Z,99389.75
2018-03-02T14:25:20.846Z,99395.23
2018-03-02T14:27:49.230Z,99391.00
2018-03-02T14:30:17.615Z,99380.58
2018-03-02T14:32:46.015Z,99389.72
2018-03-02T14:35:14.378Z,99392.85
2018-03-02T14:37:42.755Z,99397.92
2018-03-02T14:40:11.161Z,99388.36
2018-03-02T14:42:39.538Z,99390.26
2018-03-02T14:45:07.965Z,99396.51
2018-03-02T14:47:36.340Z,99396.26
2018-03-02T14:50:04.721Z,99388.67
2018-03-02T14:52:33.107Z,99397.52
2018-03-02T14:55:01.551Z,99389.25
2018-03-02T14:57:30.716Z,99404.61
2018-03-02T14:59:59.092Z,99388.02
2018-03-02T15:02:27.503Z,99385.50
2018-03-02T15:04:55.900Z,99391.36
2018-03-02T15:07:24.312Z,99387.39
2018-03-02T15:09:52.716Z,99382.95
2018-03-02T15:12:21.103Z,99389.77
2018-03-02T15:14:49.536Z,99387.20
2018-03-02T15:17:17.912Z,99387.88
2018-03-02T15:19:46.308Z,99385.03
2018-03-02T15:22:14.697Z,99380.09
2018-03-02T15:24:43.063Z,99386.33
2018-03-02T15:27:11.474Z,99393.61
2018-03-02T15:29:39.884Z,99390.48
2018-03-02T15:32:09.050Z,99395.50
2018-03-02T15:34:37.429Z,99398.52
2018-03-02T15:37:05.808Z,99402.14
2018-03-02T15:39:34.201Z,99406.14
2018-03-02T15:42:03.352Z,99408.10
2018-03-02T15:44:31.729Z,99419.36
2018-03-02T15:47:00.121Z,99411.65
2018-03-02T15:49:28.573Z,99404.95
2018-03-02T15:51:56.906Z,99414.26
2018-03-02T15:54:25.284Z,99416.87
2018-03-02T15:56:53.681Z,99415.84
2018-03-02T15:59:22.828Z,99421.20
2018-03-02T16:01:51.229Z,99427.29
2018-03-02T16:04:19.609Z,99422.69
2018-03-02T16:06:48.033Z,99427.70
2018-03-02T16:09:16.424Z,99426.22
2018-03-02T16:11:44.809Z,99427.38
2018-03-02T16:14:13.238Z,99429.36
2018-03-02T16:16:41.635Z,99438.59
2018-03-02T16:19:10.764Z,99442.42
2018-03-02T16:21:39.141Z,99441.77
2018-03-02T16:24:07.530Z,99436.50
2018-03-02T16:26:35.925Z,99433.72
2018-03-02T16:29:04.361Z,99429.65
2018-03-02T16:31:32.733Z,99433.09
2018-03-02T16:34:01.125Z,99431.64
2018-03-02T16:36:29.528Z,99426.27
2018-03-02T16:38:57.900Z,99434.92
2018-03-02T16:41:26.298Z,99436.84
2018-03-02T16:43:54.678Z,99445.52
2018-03-02T16:46:23.087Z,99447.44
2018-03-02T16:48:52.231Z,99448.00
2018-03-02T16:51:20.709Z,99446.64
2018-03-02T16:53:49.057Z,99458.66
2018-03-02T16:56:18.202Z,99457.10
2018-03-02T16:58:46.605Z,99463.08
2018-03-02T17:01:15.143Z,99464.07
2018-03-02T17:03:43.551Z,99461.42
2018-03-02T17:06:11.932Z,99468.05
2018-03-02T17:08:40.449Z,99467.89
2018-03-02T17:11:08.938Z,99469.55
2018-03-02T17:13:37.318Z,99474.97
2018-03-02T17:16:05.775Z,99471.23
2018-03-02T17:18:34.911Z,99484.84
2018-03-02T17:21:03.318Z,99483.84
2018-03-02T17:23:31.724Z,99490.21
2018-03-02T17:26:00.086Z,99490.37
2018-03-02T17:28:28.841Z,99494.22
2018-03-02T17:30:57.302Z,99501.09
2018-03-02T17:33:25.714Z,99508.63
2018-03-02T17:35:54.110Z,99513.34
2018-03-02T17:38:22.514Z,99514.23
2018-03-02T17:40:51.654Z,99522.19
2018-03-02T17:43:20.209Z,99523.52
2018-03-02T17:45:48.633Z,99524.17
2018-03-02T17:48:17.018Z,99525.83
2018-03-02T17:50:45.423Z,99525.23
2018-03-02T17:53:14.584Z,99532.12
2018-03-02T17:55:43.014Z,99534.45
2018-03-02T17:58:11.402Z,99536.34
2018-03-02T18:00:39.767Z,99537.90
2018-03-02T18:03:08.922Z,99548.05
2018-03-02T18:05:37.357Z,99554.91
2018-03-02T18:08:05.777Z,99554.23
2018-03-02T18:10:34.149Z,99564.67
2018-03-02T18:13:03.315Z,99557.38
2018-03-02T18:15:31.681Z,99563.81
2018-03-02T18:18:00.825Z,99562.91
2018-03-02T18:20:29.248Z,99560.08
2018-03-02T18:22:57.622Z,99565.02
2018-03-02T18:25:26.792Z,99570.80
2018-03-02T18:27:55.189Z,99572.86
2018-03-02T18:30:23.554Z,99573.67
2018-03-02T18:32:51.969Z,99571.70
2018-03-02T18:35:20.390Z,99578.79
2018-03-02T18:37:48.804Z,99581.11
2018-03-02T18:40:17.182Z,99584.98
2018-03-02T18:42:45.556Z,99580.33
2018-03-02T18:45:13.955Z,99582.61
2018-03-02T18:47:42.441Z,99587.58
2018-03-02T18:50:11.597Z,99593.68
2018-03-02T18:52:39.973Z,99593.26
2018-03-02T18:55:09.138Z,99594.89
2018-03-02T18:57:37.501Z,99586.18
2018-03-02T19:00:05.878Z,99595.22
2018-03-02T19:02:34.270Z,99598.39
2018-03-02T19:05:02.632Z,99596.86
2018-03-02T19:07:31.006Z,99595.52
2018-03-02T19:10:00.182Z,99599.03
2018-03-02T19:12:28.613Z,99594.28
2018-03-02T19:14:56.981Z,99603.38
2018-03-02T19:17:25.367Z,99606.16
2018-03-02T19:19:53.807Z,99608.28
2018-03-02T19:22:22.963Z,99602.80
2018-03-02T19:24:51.372Z,99601.30
2018-03-02T19:27:19.880Z,99593.77
2018-03-02T19:29:49.093Z,99594.58
2018-03-02T19:32:17.593Z,99595.95
2018-03-02T19:34:46.108Z,99597.99
2018-03-02T19:37:15.352Z,99592.76
2018-03-02T19:39:43.804Z,99600.55
2018-03-02T19:42:13.111Z,99601.03
2018-03-02T19:44:41.635Z,99597.45
2018-03-02T19:47:10.128Z,99608.85
2018-03-02T19:49:38.614Z,99608.85
2018-03-02T19:52:07.096Z,99604.56
2018-03-02T19:54:35.601Z,99607.64
2018-03-02T19:57:04.828Z,99604.77
2018-03-02T19:59:33.323Z,99605.02
2018-03-02T20:02:01.774Z,99604.63
2018-03-02T20:04:31.002Z,99600.09
2018-03-02T20:06:59.570Z,99608.34
2018-03-02T20:09:27.970Z,99611.45
2018-03-02T20:11:56.400Z,99613.19
2018-03-02T20:14:25.605Z,99611.20
2018-03-02T20:16:54.801Z,99605.56
2018-03-02T20:19:24.120Z,99607.11
2018-03-02T20:21:52.530Z,99607.80
2018-03-02T20:24:20.921Z,99598.96
2018-03-02T20:26:49.327Z,99599.78
2018-03-02T20:29:17.917Z,99603.66
2018-03-02T20:31:46.294Z,99599.39
2018-03-02T20:34:14.682Z,99605.42
2018-03-02T20:36:43.848Z,99596.23
2018-03-02T20:39:12.253Z,99600.14
2018-03-02T20:41:41.414Z,99596.81
2018-03-02T20:44:09.814Z,99610.98
2018-03-02T20:46:38.219Z,99606.23
2018-03-02T20:49:07.358Z,99601.17
2018-03-02T20:51:35.842Z,99592.31
2018-03-02T20:54:04.212Z,99598.80
2018-03-02T20:56:32.592Z,99593.73
2018-03-02T20:59:00.981Z,99598.45
2018-03-02T21:01:29.371Z,99591.80
2018-03-02T21:03:57.763Z,99591.98
2018-03-02T21:06:26.140Z,99594.38
2018-03-02T21:08:55.450Z,99595.38
2018-03-02T21:11:23.872Z,99595.19
2018-03-02T21:13:52.276Z,99591.94
2018-03-02T21:16:20.707Z,99592.84
2018-03-02T21:18:49.236Z,99593.92
2018-03-02T21:21:17.626Z,99592.11
2018-03-02T21:23:46.258Z,99596.48
2018-03-02T21:26:14.652Z,99600.33
2018-03-02T21:28:43.040Z,99598.89
2018-03-02T21:31:11.444Z,99594.94
2018-03-02T21:33:39.826Z,99593.42
2018-03-02T21:36:08.224Z,99594.45
2018-03-02T21:38:36.625Z,99594.48
2018-03-02T21:41:05.767Z,99598.74
2018-03-02T21:43:34.154Z,99587.12
2018-03-02T21:46:02.526Z,99586.02
2018-03-02T21:48:30.931Z,99589.06
2018-03-02T21:50:59.343Z,99588.41
2018-03-02T21:53:27.895Z,99587.94
2018-03-02T21:55:59.095Z,99594.21
2018-03-02T21:58:28.289Z,99594.30
2018-03-02T22:00:56.717Z,99594.63
2018-03-02T22:03:25.089Z,99589.23
2018-03-02T22:05:54.294Z,99582.10
2018-03-02T22:08:22.687Z,99584.87
2018-03-02T22:13:48.690Z,99586.72
2018-03-02T22:16:17.097Z,99578.86
2018-03-02T22:18:45.463Z,99580.42
2018-03-02T22:21:13.871Z,99574.98
2018-03-02T22:23:43.008Z,99576.26
2018-03-02T22:26:11.422Z,99574.61
2018-03-02T22:28:39.784Z,99575.39
2018-03-02T22:31:08.178Z,99580.50
2018-03-02T22:33:36.577Z,99588.61
2018-03-02T22:36:05.752Z,99583.30
2018-03-02T22:38:34.133Z,99578.86
2018-03-02T22:41:02.546Z,99589.92
2018-03-02T22:43:31.716Z,99586.63
2018-03-02T22:46:00.088Z,99586.38
2018-03-02T22:48:28.460Z,99585.68
2018-03-02T22:50:56.868Z,99589.50
2018-03-02T22:53:25.251Z,99591.94
2018-03-02T22:55:53.616Z,99591.31
2018-03-02T22:58:22.784Z,99593.12
2018-03-02T23:00:51.182Z,99591.31
2018-03-02T23:03:19.570Z,99593.74
2018-03-02T23:05:48.749Z,99594.44
2018-03-02T23:08:17.115Z,99594.93
2018-03-02T23:10:45.532Z,99585.99
2018-03-02T23:13:14.675Z,99589.53
2018-03-02T23:15:43.036Z,99585.40
2018-03-02T23:18:11.460Z,99580.49
2018-03-02T23:20:39.843Z,99583.95
2018-03-02T23:23:08.286Z,99578.06
2018-03-02T23:25:36.670Z,99580.62
2018-03-02T23:28:05.078Z,99587.69
2018-03-02T23:30:33.441Z,99590.76
2018-03-02T23:33:01.821Z,99595.20
2018-03-02T23:35:30.248Z,99590.55
2018-03-02T23:37:58.637Z,99599.64
2018-03-02T23:40:27.046Z,99593.96
2018-03-02T23:42:55.436Z,99601.36
2018-03-02T23:45:23.809Z,99597.90
2018-03-02T23:47:52.235Z,99601.38
2018-03-02T23:50:20.638Z,99602.07
2018-03-02T23:52:49.066Z,99596.52
2018-03-02T23:55:17.429Z,99598.63
2018-03-02T23:57:45.837Z,99604.74
